sensor_id;sensor_type;location;lat;lon;timestamp;pressure;altitude;pressure_sealevel;temperature;humidity
76126;BME280;65174;48.138;21.002;2023-02-01T05:20:08;98986.66;;;2.46;77.49
76126;BME280;65174;48.138;21.002;2023-02-01T05:34:26;98983.28;;;2.23;77.14
76126;BME280;65174;48.138;21.002;2023-02-01T05:38:28;98997.22;;;2.13;78.31
76126;BME280;65174;48.138;21.002;2023-02-01T05:43:30;98987.88;;;2.14;78.47
76126;BME280;65174;48.138;21.002;2023-02-01T05:48:33;98989.41;;;2.18;78.03
76126;BME280;65174;48.138;21.002;2023-02-01T05:53:35;98990.41;;;2.14;78.09
76126;BME280;65174;48.138;21.002;2023-02-01T05:57:37;99002.97;;;2.18;77.69
76126;BME280;65174;48.138;21.002;2023-02-01T06:02:12;99008.50;;;2.29;77.76
76126;BME280;65174;48.138;21.002;2023-02-01T06:28:45;99060.09;;;1.37;80.45
76126;BME280;65174;48.138;21.002;2023-02-01T06:31:47;99068.44;;;1.66;80.30
76126;BME280;65174;48.138;21.002;2023-02-01T06:34:50;99066.78;;;1.89;79.01
76126;BME280;65174;48.138;21.002;2023-02-01T06:37:54;99069.22;;;1.92;78.93
76126;BME280;65174;48.138;21.002;2023-02-01T06:40:57;99077.09;;;1.85;78.32
76126;BME280;65174;48.138;21.002;2023-02-01T06:43:59;99072.25;;;1.79;79.17
76126;BME280;65174;48.138;21.002;2023-02-01T06:47:03;99087.34;;;1.83;79.26
76126;BME280;65174;48.138;21.002;2023-02-01T06:50:09;99064.66;;;1.77;78.43
76126;BME280;65174;48.138;21.002;2023-02-01T06:53:11;99073.63;;;1.87;79.11
76126;BME280;65174;48.138;21.002;2023-02-01T06:56:13;99067.47;;;1.94;78.35
76126;BME280;65174;48.138;21.002;2023-02-01T06:59:16;99077.69;;;2.16;78.12
76126;BME280;65174;48.138;21.002;2023-02-01T07:02:18;99073.44;;;2.16;78.34
76126;BME280;65174;48.138;21.002;2023-02-01T07:05:21;99068.72;;;2.29;77.63
76126;BME280;65174;48.138;21.002;2023-02-01T07:08:23;99060.94;;;2.33;76.89
76126;BME280;65174;48.138;21.002;2023-02-01T07:11:24;99068.00;;;2.49;77.18
76126;BME280;65174;48.138;21.002;2023-02-01T07:14:29;99076.41;;;2.51;76.85
76126;BME280;65174;48.138;21.002;2023-02-01T07:17:31;99072.16;;;2.73;76.22
76126;BME280;65174;48.138;21.002;2023-02-01T07:20:33;99089.63;;;2.60;77.10
76126;BME280;65174;48.138;21.002;2023-02-01T07:23:35;99097.88;;;2.43;77.98
76126;BME280;65174;48.138;21.002;2023-02-01T07:26:37;99094.13;;;1.58;79.81
76126;BME280;65174;48.138;21.002;2023-02-01T07:29:39;99100.28;;;1.51;80.57
76126;BME280;65174;48.138;21.002;2023-02-01T07:36:30;99103.19;;;1.40;80.84
76126;BME280;65174;48.138;21.002;2023-02-01T07:39:32;99101.53;;;1.39;80.81
76126;BME280;65174;48.138;21.002;2023-02-01T07:42:34;99106.13;;;1.54;81.12
76126;BME280;65174;48.138;21.002;2023-02-01T07:45:36;99098.41;;;1.82;81.12
76126;BME280;65174;48.138;21.002;2023-02-01T07:48:38;99094.53;;;2.20;78.80
76126;BME280;65174;48.138;21.002;2023-02-01T07:51:41;99093.63;;;2.44;78.16
76126;BME280;65174;48.138;21.002;2023-02-01T07:54:43;99089.44;;;2.65;76.83
76126;BME280;65174;48.138;21.002;2023-02-01T07:57:45;99088.41;;;2.92;75.38
76126;BME280;65174;48.138;21.002;2023-02-01T08:00:47;99087.69;;;3.10;75.24
76126;BME280;65174;48.138;21.002;2023-02-01T08:04:12;99084.03;;;3.37;73.80
76126;BME280;65174;48.138;21.002;2023-02-01T08:07:14;99088.22;;;3.58;72.68
76126;BME280;65174;48.138;21.002;2023-02-01T08:10:17;99090.03;;;3.76;72.70
76126;BME280;65174;48.138;21.002;2023-02-01T08:13:19;99082.50;;;3.53;73.21
76126;BME280;65174;48.138;21.002;2023-02-01T08:16:23;99088.19;;;3.80;71.46
76126;BME280;65174;48.138;21.002;2023-02-01T08:19:25;99100.56;;;3.89;70.56
76126;BME280;65174;48.138;21.002;2023-02-01T08:22:31;99100.75;;;3.64;71.66
76126;BME280;65174;48.138;21.002;2023-02-01T08:25:34;99108.91;;;3.72;72.01
76126;BME280;65174;48.138;21.002;2023-02-01T08:28:38;99097.34;;;3.84;72.09
76126;BME280;65174;48.138;21.002;2023-02-01T08:31:40;99095.69;;;3.63;74.64
76126;BME280;65174;48.138;21.002;2023-02-01T08:34:43;99089.31;;;3.33;75.66
76126;BME280;65174;48.138;21.002;2023-02-01T08:37:45;99096.44;;;3.25;76.42
76126;BME280;65174;48.138;21.002;2023-02-01T08:40:48;99096.22;;;3.51;74.38
76126;BME280;65174;48.138;21.002;2023-02-01T08:43:50;99089.25;;;3.54;74.60
76126;BME280;65174;48.138;21.002;2023-02-01T08:46:52;99100.41;;;3.92;73.68
76126;BME280;65174;48.138;21.002;2023-02-01T08:49:54;99105.00;;;4.04;72.80
76126;BME280;65174;48.138;21.002;2023-02-01T08:52:56;99105.31;;;4.17;72.78
76126;BME280;65174;48.138;21.002;2023-02-01T08:55:58;99107.69;;;4.40;71.48
76126;BME280;65174;48.138;21.002;2023-02-01T08:59:00;99115.06;;;4.64;69.84
76126;BME280;65174;48.138;21.002;2023-02-01T09:02:02;99108.28;;;4.26;70.32
76126;BME280;65174;48.138;21.002;2023-02-01T09:05:05;99114.16;;;4.65;69.84
76126;BME280;65174;48.138;21.002;2023-02-01T09:08:07;99108.28;;;4.82;69.06
76126;BME280;65174;48.138;21.002;2023-02-01T09:11:13;99108.84;;;4.89;69.06
76126;BME280;65174;48.138;21.002;2023-02-01T09:14:16;99110.16;;;4.78;70.81
76126;BME280;65174;48.138;21.002;2023-02-01T09:17:18;99110.13;;;4.97;68.33
76126;BME280;65174;48.138;21.002;2023-02-01T09:20:20;99123.47;;;5.04;68.09
76126;BME280;65174;48.138;21.002;2023-02-01T09:23:26;99119.69;;;4.94;71.65
76126;BME280;65174;48.138;21.002;2023-02-01T09:26:28;99124.63;;;5.15;71.14
76126;BME280;65174;48.138;21.002;2023-02-01T09:29:33;99121.31;;;4.95;70.50
76126;BME280;65174;48.138;21.002;2023-02-01T09:32:35;99108.66;;;5.10;70.65
76126;BME280;65174;48.138;21.002;2023-02-01T09:35:37;99100.88;;;5.30;70.99
76126;BME280;65174;48.138;21.002;2023-02-01T09:38:40;99106.16;;;5.44;70.78
76126;BME280;65174;48.138;21.002;2023-02-01T09:42:02;99092.69;;;5.41;68.74
76126;BME280;65174;48.138;21.002;2023-02-01T09:48:37;99098.31;;;5.30;68.86
76126;BME280;65174;48.138;21.002;2023-02-01T10:40:29;99040.53;;;7.04;56.96
76126;BME280;65174;48.138;21.002;2023-02-01T11:00:03;99017.25;;;6.77;53.78
76126;BME280;65174;48.138;21.002;2023-02-01T11:09:52;98994.19;;;7.07;53.32
76126;BME280;65174;48.138;21.002;2023-02-01T11:15:17;98997.41;;;7.10;52.24
76126;BME280;65174;48.138;21.002;2023-02-01T11:20:40;98987.25;;;7.09;52.73
76126;BME280;65174;48.138;21.002;2023-02-01T11:25:57;98987.94;;;6.97;53.69
76126;BME280;65174;48.138;21.002;2023-02-01T11:31:09;98979.91;;;7.03;54.44
76126;BME280;65174;48.138;21.002;2023-02-01T11:35:44;98968.66;;;7.05;53.67
76126;BME280;65174;48.138;21.002;2023-02-01T12:02:09;98936.78;;;6.80;51.29
76126;BME280;65174;48.138;21.002;2023-02-01T12:09:02;98923.69;;;6.70;53.08
76126;BME280;65174;48.138;21.002;2023-02-01T12:15:27;98917.19;;;6.79;53.34
76126;BME280;65174;48.138;21.002;2023-02-01T12:18:43;98918.88;;;6.94;52.54
76126;BME280;65174;48.138;21.002;2023-02-01T12:21:53;98922.84;;;6.99;51.54
76126;BME280;65174;48.138;21.002;2023-02-01T12:46:43;98911.44;;;6.89;52.94
76126;BME280;65174;48.138;21.002;2023-02-01T12:50:18;98908.63;;;6.94;53.51
76126;BME280;65174;48.138;21.002;2023-02-01T12:56:57;98915.03;;;6.87;54.38
76126;BME280;65174;48.138;21.002;2023-02-01T13:00:16;98914.41;;;6.97;54.06
76126;BME280;65174;48.138;21.002;2023-02-01T13:03:35;98908.47;;;7.25;53.65
76126;BME280;65174;48.138;21.002;2023-02-01T13:07:11;98908.31;;;7.42;53.28
76126;BME280;65174;48.138;21.002;2023-02-01T13:10:22;98909.78;;;7.46;52.70
76126;BME280;65174;48.138;21.002;2023-02-01T13:17:01;98900.78;;;7.25;52.17
76126;BME280;65174;48.138;21.002;2023-02-01T13:27:27;98902.88;;;6.75;53.88
76126;BME280;65174;48.138;21.002;2023-02-01T13:41:15;98900.38;;;6.59;55.01
76126;BME280;65174;48.138;21.002;2023-02-01T13:44:30;98892.38;;;6.50;55.28
76126;BME280;65174;48.138;21.002;2023-02-01T13:47:42;98894.88;;;6.51;56.19
76126;BME280;65174;48.138;21.002;2023-02-01T13:50:50;98892.56;;;6.47;56.81
76126;BME280;65174;48.138;21.002;2023-02-01T13:53:53;98894.03;;;6.51;56.79
76126;BME280;65174;48.138;21.002;2023-02-01T13:56:56;98894.94;;;6.50;57.09
76126;BME280;65174;48.138;21.002;2023-02-01T14:00:36;98895.03;;;6.48;57.06
76126;BME280;65174;48.138;21.002;2023-02-01T14:03:46;98889.75;;;6.35;56.09
76126;BME280;65174;48.138;21.002;2023-02-01T14:06:51;98901.09;;;6.31;56.54
76126;BME280;65174;48.138;21.002;2023-02-01T14:13:46;98902.25;;;6.26;57.63
76126;BME280;65174;48.138;21.002;2023-02-01T14:20:39;98893.94;;;6.07;58.11
76126;BME280;65174;48.138;21.002;2023-02-01T14:23:43;98899.28;;;6.18;57.72
76126;BME280;65174;48.138;21.002;2023-02-01T14:26:47;98901.75;;;6.35;57.35
76126;BME280;65174;48.138;21.002;2023-02-01T14:30:02;98893.25;;;6.34;57.45
76126;BME280;65174;48.138;21.002;2023-02-01T14:33:33;98899.91;;;6.37;57.31
76126;BME280;65174;48.138;21.002;2023-02-01T14:36:42;98899.91;;;6.37;57.73
76126;BME280;65174;48.138;21.002;2023-02-01T14:43:07;98903.16;;;6.25;58.47
76126;BME280;65174;48.138;21.002;2023-02-01T14:50:10;98909.03;;;5.96;59.40
76126;BME280;65174;48.138;21.002;2023-02-01T14:53:33;98897.66;;;5.86;59.96
76126;BME280;65174;48.138;21.002;2023-02-01T14:56:35;98897.59;;;5.70;60.55
76126;BME280;65174;48.138;21.002;2023-02-01T14:59:37;98902.06;;;5.67;61.59
76126;BME280;65174;48.138;21.002;2023-02-01T15:02:40;98899.91;;;5.59;61.87
76126;BME280;65174;48.138;21.002;2023-02-01T15:05:42;98904.97;;;5.43;61.95
76126;BME280;65174;48.138;21.002;2023-02-01T15:08:44;98909.66;;;5.35;63.10
76126;BME280;65174;48.138;21.002;2023-02-01T15:15:23;98912.91;;;5.22;63.77
76126;BME280;65174;48.138;21.002;2023-02-01T15:18:26;98908.59;;;5.07;64.37
76126;BME280;65174;48.138;21.002;2023-02-01T15:21:29;98902.78;;;5.03;64.68
76126;BME280;65174;48.138;21.002;2023-02-01T15:24:33;98901.47;;;4.96;64.90
76126;BME280;65174;48.138;21.002;2023-02-01T15:27:55;98892.84;;;4.81;65.16
76126;BME280;65174;48.138;21.002;2023-02-01T15:31:35;98891.38;;;4.76;65.46
76126;BME280;65174;48.138;21.002;2023-02-01T15:34:49;98893.50;;;4.68;66.04
76126;BME280;65174;48.138;21.002;2023-02-01T15:37:51;98898.28;;;4.57;66.36
76126;BME280;65174;48.138;21.002;2023-02-01T15:44:18;98895.88;;;4.37;67.01
76126;BME280;65174;48.138;21.002;2023-02-01T15:47:26;98905.16;;;4.21;67.14
76126;BME280;65174;48.138;21.002;2023-02-01T15:50:30;98906.03;;;4.20;67.84
76126;BME280;65174;48.138;21.002;2023-02-01T15:53:33;98917.50;;;4.11;67.80
76126;BME280;65174;48.138;21.002;2023-02-01T15:56:38;98914.06;;;4.12;67.87
76126;BME280;65174;48.138;21.002;2023-02-01T15:59:43;98909.94;;;4.10;67.48
76126;BME280;65174;48.138;21.002;2023-02-01T16:02:55;98911.38;;;3.96;67.75
76126;BME280;65174;48.138;21.002;2023-02-01T16:06:01;98908.44;;;3.87;67.85
76126;BME280;65174;48.138;21.002;2023-02-01T16:09:12;98906.09;;;3.82;68.04
76126;BME280;65174;48.138;21.002;2023-02-01T16:12:32;98898.72;;;3.76;68.47
76126;BME280;65174;48.138;21.002;2023-02-01T16:15:36;98901.66;;;3.67;68.39
76126;BME280;65174;48.138;21.002;2023-02-01T16:18:38;98895.06;;;3.63;68.98
76126;BME280;65174;48.138;21.002;2023-02-01T16:21:40;98901.81;;;3.64;68.47
76126;BME280;65174;48.138;21.002;2023-02-01T16:24:42;98895.19;;;3.60;69.07
76126;BME280;65174;48.138;21.002;2023-02-01T16:27:44;98889.28;;;3.60;68.86
76126;BME280;65174;48.138;21.002;2023-02-01T16:30:47;98890.91;;;3.61;69.13
76126;BME280;65174;48.138;21.002;2023-02-01T16:33:51;98893.13;;;3.50;69.37
76126;BME280;65174;48.138;21.002;2023-02-01T16:36:53;98897.09;;;3.37;70.27
76126;BME280;65174;48.138;21.002;2023-02-01T16:39:58;98899.09;;;3.30;70.67
76126;BME280;65174;48.138;21.002;2023-02-01T16:43:00;98901.56;;;3.32;70.12
76126;BME280;65174;48.138;21.002;2023-02-01T16:46:02;98900.72;;;3.31;70.21
76126;BME280;65174;48.138;21.002;2023-02-01T16:49:05;98903.44;;;3.28;70.84
76126;BME280;65174;48.138;21.002;2023-02-01T16:52:13;98902.19;;;3.18;71.13
76126;BME280;65174;48.138;21.002;2023-02-01T16:55:17;98899.66;;;3.16;72.08
76126;BME280;65174;48.138;21.002;2023-02-01T16:58:20;98899.94;;;3.10;71.95
76126;BME280;65174;48.138;21.002;2023-02-01T17:01:22;98894.25;;;3.04;71.98
76126;BME280;65174;48.138;21.002;2023-02-01T17:04:25;98905.09;;;3.09;71.53
76126;BME280;65174;48.138;21.002;2023-02-01T17:07:27;98896.63;;;3.08;72.35
76126;BME280;65174;48.138;21.002;2023-02-01T17:10:30;98899.31;;;3.05;72.17
76126;BME280;65174;48.138;21.002;2023-02-01T17:13:35;98890.44;;;2.94;72.29
76126;BME280;65174;48.138;21.002;2023-02-01T17:16:37;98889.56;;;2.95;72.66
76126;BME280;65174;48.138;21.002;2023-02-01T17:19:39;98893.44;;;2.83;72.97
76126;BME280;65174;48.138;21.002;2023-02-01T17:22:42;98883.09;;;2.68;73.53
76126;BME280;65174;48.138;21.002;2023-02-01T17:25:44;98891.84;;;2.61;73.55
76126;BME280;65174;48.138;21.002;2023-02-01T17:28:46;98894.53;;;2.58;73.40
76126;BME280;65174;48.138;21.002;2023-02-01T17:31:51;98887.78;;;2.57;73.78
76126;BME280;65174;48.138;21.002;2023-02-01T17:34:54;98899.22;;;2.67;74.12
76126;BME280;65174;48.138;21.002;2023-02-01T17:37:56;98911.84;;;2.70;73.28
76126;BME280;65174;48.138;21.002;2023-02-01T17:40:58;98905.84;;;2.71;73.97
76126;BME280;65174;48.138;21.002;2023-02-01T17:44:01;98909.16;;;2.73;73.96
76126;BME280;65174;48.138;21.002;2023-02-01T17:47:04;98906.59;;;2.74;73.26
76126;BME280;65174;48.138;21.002;2023-02-01T17:50:06;98902.72;;;2.64;74.12
76126;BME280;65174;48.138;21.002;2023-02-01T17:53:09;98905.28;;;2.64;73.94
76126;BME280;65174;48.138;21.002;2023-02-01T17:56:16;98906.00;;;2.68;74.23
76126;BME280;65174;48.138;21.002;2023-02-01T17:59:19;98898.81;;;2.77;73.75
76126;BME280;65174;48.138;21.002;2023-02-01T18:02:23;98903.00;;;2.78;73.45
76126;BME280;65174;48.138;21.002;2023-02-01T18:05:39;98911.13;;;2.66;73.99
76126;BME280;65174;48.138;21.002;2023-02-01T18:08:42;98920.00;;;2.58;73.96
76126;BME280;65174;48.138;21.002;2023-02-01T18:11:45;98918.06;;;2.63;73.91
76126;BME280;65174;48.138;21.002;2023-02-01T18:14:47;98906.38;;;2.59;73.93
76126;BME280;65174;48.138;21.002;2023-02-01T18:17:49;98914.75;;;2.61;74.24
76126;BME280;65174;48.138;21.002;2023-02-01T18:20:52;98912.75;;;2.89;73.15
76126;BME280;65174;48.138;21.002;2023-02-01T18:23:54;98906.88;;;3.07;72.53
76126;BME280;65174;48.138;21.002;2023-02-01T18:26:56;98912.66;;;3.10;72.75
76126;BME280;65174;48.138;21.002;2023-02-01T18:30:00;98914.28;;;3.13;73.15
76126;BME280;65174;48.138;21.002;2023-02-01T18:33:02;98919.38;;;3.13;72.81
76126;BME280;65174;48.138;21.002;2023-02-01T18:36:04;98926.69;;;3.00;73.36
76126;BME280;65174;48.138;21.002;2023-02-01T18:39:07;98917.59;;;2.95;72.77
76126;BME280;65174;48.138;21.002;2023-02-01T18:42:13;98920.00;;;2.98;73.05
76126;BME280;65174;48.138;21.002;2023-02-01T18:48:28;98909.09;;;3.35;72.14
76126;BME280;65174;48.138;21.002;2023-02-01T18:51:34;98903.06;;;3.17;72.18
76126;BME280;65174;48.138;21.002;2023-02-01T18:54:36;98912.81;;;3.07;73.00
76126;BME280;65174;48.138;21.002;2023-02-01T18:57:51;98919.13;;;2.99;73.25
76126;BME280;65174;48.138;21.002;2023-02-01T19:00:55;98915.81;;;2.97;73.72
76126;BME280;65174;48.138;21.002;2023-02-01T19:03:57;98917.84;;;3.09;73.63
76126;BME280;65174;48.138;21.002;2023-02-01T19:07:14;98902.19;;;3.18;73.66
76126;BME280;65174;48.138;21.002;2023-02-01T19:10:21;98903.50;;;3.06;73.54
76126;BME280;65174;48.138;21.002;2023-02-01T19:13:23;98905.88;;;3.11;73.80
76126;BME280;65174;48.138;21.002;2023-02-01T19:16:29;98905.22;;;3.06;74.80
76126;BME280;65174;48.138;21.002;2023-02-01T19:19:31;98894.06;;;3.08;74.31
76126;BME280;65174;48.138;21.002;2023-02-01T19:22:34;98900.13;;;3.06;74.74
76126;BME280;65174;48.138;21.002;2023-02-01T19:25:37;98896.19;;;2.99;74.78
76126;BME280;65174;48.138;21.002;2023-02-01T19:28:40;98888.78;;;3.13;74.52
76126;BME280;65174;48.138;21.002;2023-02-01T19:31:42;98890.03;;;3.23;73.80
76126;BME280;65174;48.138;21.002;2023-02-01T19:34:47;98900.38;;;3.20;74.09
76126;BME280;65174;48.138;21.002;2023-02-01T19:38:01;98865.13;;;2.91;74.35
76126;BME280;65174;48.138;21.002;2023-02-01T19:41:03;98899.25;;;3.07;74.56
76126;BME280;65174;48.138;21.002;2023-02-01T19:44:06;98901.78;;;3.07;74.22
76126;BME280;65174;48.138;21.002;2023-02-01T19:47:08;98894.03;;;3.10;74.28
76126;BME280;65174;48.138;21.002;2023-02-01T19:50:19;98891.72;;;3.04;74.06
76126;BME280;65174;48.138;21.002;2023-02-01T19:53:22;98904.53;;;3.02;74.88
76126;BME280;65174;48.138;21.002;2023-02-01T19:56:29;98916.44;;;3.02;74.71
76126;BME280;65174;48.138;21.002;2023-02-01T19:59:32;98920.19;;;2.93;74.43
76126;BME280;65174;48.138;21.002;2023-02-01T20:02:34;98919.44;;;2.91;74.81
76126;BME280;65174;48.138;21.002;2023-02-01T20:05:36;98909.44;;;2.87;74.58
76126;BME280;65174;48.138;21.002;2023-02-01T20:08:39;98924.47;;;2.93;74.15
76126;BME280;65174;48.138;21.002;2023-02-01T20:11:41;98914.53;;;2.87;74.67
76126;BME280;65174;48.138;21.002;2023-02-01T20:14:43;98917.03;;;2.88;74.08
76126;BME280;65174;48.138;21.002;2023-02-01T20:17:45;98923.97;;;2.85;74.72
76126;BME280;65174;48.138;21.002;2023-02-01T20:20:47;98916.06;;;2.91;74.03
76126;BME280;65174;48.138;21.002;2023-02-01T20:23:49;98911.06;;;3.08;73.42
76126;BME280;65174;48.138;21.002;2023-02-01T20:26:52;98909.94;;;3.15;72.72
76126;BME280;65174;48.138;21.002;2023-02-01T20:29:54;98913.31;;;3.15;72.86
76126;BME280;65174;48.138;21.002;2023-02-01T20:32:56;98914.00;;;3.19;72.85
76126;BME280;65174;48.138;21.002;2023-02-01T20:35:58;98904.84;;;3.15;72.69
76126;BME280;65174;48.138;21.002;2023-02-01T20:39:01;98909.84;;;3.16;72.10
76126;BME280;65174;48.138;21.002;2023-02-01T20:42:03;98907.28;;;3.18;71.85
76126;BME280;65174;48.138;21.002;2023-02-01T20:45:06;98897.94;;;3.17;71.76
76126;BME280;65174;48.138;21.002;2023-02-01T20:48:08;98897.94;;;3.17;72.25
76126;BME280;65174;48.138;21.002;2023-02-01T20:51:13;98905.59;;;3.17;71.76
76126;BME280;65174;48.138;21.002;2023-02-01T20:54:15;98909.03;;;2.96;72.33
76126;BME280;65174;48.138;21.002;2023-02-01T20:57:17;98899.94;;;2.90;71.96
76126;BME280;65174;48.138;21.002;2023-02-01T21:00:20;98900.22;;;2.84;72.82
76126;BME280;65174;48.138;21.002;2023-02-01T21:03:28;98904.91;;;2.73;72.89
76126;BME280;65174;48.138;21.002;2023-02-01T21:06:31;98906.38;;;2.59;73.36
76126;BME280;65174;48.138;21.002;2023-02-01T21:09:36;98909.34;;;2.48;73.86
76126;BME280;65174;48.138;21.002;2023-02-01T21:12:41;98896.16;;;2.38;74.26
76126;BME280;65174;48.138;21.002;2023-02-01T21:15:43;98901.34;;;2.35;74.24
76126;BME280;65174;48.138;21.002;2023-02-01T21:18:50;98908.81;;;2.40;74.58
76126;BME280;65174;48.138;21.002;2023-02-01T21:21:54;98901.34;;;2.35;74.47
76126;BME280;65174;48.138;21.002;2023-02-01T21:24:56;98915.00;;;2.34;74.67
76126;BME280;65174;48.138;21.002;2023-02-01T21:27:58;98915.63;;;2.39;74.79
76126;BME280;65174;48.138;21.002;2023-02-01T21:31:00;98910.91;;;2.72;73.22
76126;BME280;65174;48.138;21.002;2023-02-01T21:34:03;98915.50;;;2.84;72.82
76126;BME280;65174;48.138;21.002;2023-02-01T21:37:05;98910.41;;;2.84;72.57
76126;BME280;65174;48.138;21.002;2023-02-01T21:40:08;98910.69;;;2.77;72.74
76126;BME280;65174;48.138;21.002;2023-02-01T21:43:10;98905.84;;;2.71;73.30
76126;BME280;65174;48.138;21.002;2023-02-01T21:46:12;98893.53;;;2.62;73.38
76126;BME280;65174;48.138;21.002;2023-02-01T21:49:14;98899.63;;;2.58;74.06
76126;BME280;65174;48.138;21.002;2023-02-01T21:52:16;98894.31;;;2.62;73.47
76126;BME280;65174;48.138;21.002;2023-02-01T21:55:18;98893.44;;;2.63;73.87
76126;BME280;65174;48.138;21.002;2023-02-01T21:58:20;98881.75;;;2.59;73.41
76126;BME280;65174;48.138;21.002;2023-02-01T22:01:22;98883.00;;;2.69;73.32
76126;BME280;65174;48.138;21.002;2023-02-01T22:04:24;98857.47;;;2.71;73.00
76126;BME280;65174;48.138;21.002;2023-02-01T22:07:26;98861.94;;;2.86;72.60
76126;BME280;65174;48.138;21.002;2023-02-01T22:10:28;98856.72;;;2.89;72.51
76126;BME280;65174;48.138;21.002;2023-02-01T22:13:30;98854.72;;;2.95;72.39
76126;BME280;65174;48.138;21.002;2023-02-01T22:16:32;98854.78;;;2.94;72.76
76126;BME280;65174;48.138;21.002;2023-02-01T22:19:34;98850.41;;;2.97;72.27
76126;BME280;65174;48.138;21.002;2023-02-01T22:22:36;98850.53;;;2.94;72.99
76126;BME280;65174;48.138;21.002;2023-02-01T22:25:38;98847.97;;;2.94;72.50
76126;BME280;65174;48.138;21.002;2023-02-01T22:28:40;98853.75;;;2.98;72.73
76126;BME280;65174;48.138;21.002;2023-02-01T22:31:42;98848.81;;;2.95;72.32
76126;BME280;65174;48.138;21.002;2023-02-01T22:34:44;98853.94;;;2.93;72.70
76126;BME280;65174;48.138;21.002;2023-02-01T22:37:46;98850.59;;;2.93;72.81
76126;BME280;65174;48.138;21.002;2023-02-01T22:40:58;98849.19;;;2.86;73.06
76126;BME280;65174;48.138;21.002;2023-02-01T22:44:00;98854.88;;;2.92;73.35
76126;BME280;65174;48.138;21.002;2023-02-01T22:47:02;98855.25;;;3.03;72.72
76126;BME280;65174;48.138;21.002;2023-02-01T22:50:04;98842.63;;;3.00;72.93
76126;BME280;65174;48.138;21.002;2023-02-01T22:53:06;98844.28;;;3.01;73.10
76126;BME280;65174;48.138;21.002;2023-02-01T22:56:10;98840.44;;;3.11;72.80
76126;BME280;65174;48.138;21.002;2023-02-01T22:59:12;98848.16;;;3.10;73.33
76126;BME280;65174;48.138;21.002;2023-02-01T23:02:15;98848.09;;;3.11;72.89
76126;BME280;65174;48.138;21.002;2023-02-01T23:05:18;98846.38;;;3.12;73.24
76126;BME280;65174;48.138;21.002;2023-02-01T23:08:20;98847.25;;;3.11;73.07
76126;BME280;65174;48.138;21.002;2023-02-01T23:11:22;98842.28;;;3.08;73.46
76126;BME280;65174;48.138;21.002;2023-02-01T23:14:38;98844.81;;;3.08;73.40
76126;BME280;65174;48.138;21.002;2023-02-01T23:18:00;98843.75;;;3.13;73.22
76126;BME280;65174;48.138;21.002;2023-02-01T23:21:04;98838.09;;;3.07;73.31
76126;BME280;65174;48.138;21.002;2023-02-01T23:28:12;98824.16;;;2.95;73.51
76126;BME280;65174;48.138;21.002;2023-02-01T23:31:14;98821.41;;;3.00;73.45
76126;BME280;65174;48.138;21.002;2023-02-01T23:34:16;98820.13;;;3.10;73.04
76126;BME280;65174;48.138;21.002;2023-02-01T23:37:18;98810.94;;;3.06;73.50
76126;BME280;65174;48.138;21.002;2023-02-01T23:40:20;98801.44;;;2.91;73.46
76126;BME280;65174;48.138;21.002;2023-02-01T23:43:22;98797.53;;;3.21;71.97
76126;BME280;65174;48.138;21.002;2023-02-01T23:46:43;98799.31;;;3.19;71.60
76126;BME280;65174;48.138;21.002;2023-02-01T23:49:48;98790.53;;;3.26;71.66
76126;BME280;65174;48.138;21.002;2023-02-01T23:52:50;98794.88;;;3.24;71.53
76126;BME280;65174;48.138;21.002;2023-02-01T23:55:53;98781.75;;;3.13;71.99
76126;BME280;65174;48.138;21.002;2023-02-01T23:58:55;98780.16;;;3.29;71.48
